createdAt,value
2023-05-09T00:02:12.077Z,99342.00
2023-05-09T00:04:39.159Z,99336.00
2023-05-09T00:07:06.122Z,99337.00
2023-05-09T00:09:33.062Z,99329.00
2023-05-09T00:12:00.024Z,99327.00
2023-05-09T00:14:27.480Z,99316.00
2023-05-09T00:16:55.072Z,99325.00
2023-05-09T00:19:21.987Z,99325.00
2023-05-09T00:21:48.919Z,99325.00
2023-05-09T00:24:15.763Z,99318.00
2023-05-09T00:26:42.667Z,99317.00
2023-05-09T00:29:09.516Z,99316.00
2023-05-09T00:31:36.373Z,99310.00
2023-05-09T00:34:03.298Z,99311.00
2023-05-09T00:36:30.570Z,99308.00
2023-05-09T00:38:57.437Z,99305.00
2023-05-09T00:41:27.332Z,99300.00
2023-05-09T00:43:54.111Z,99300.00
2023-05-09T00:46:21.823Z,99296.00
2023-05-09T00:48:48.761Z,99297.00
2023-05-09T00:51:17.022Z,99300.00
2023-05-09T00:53:45.580Z,99295.00
2023-05-09T00:56:12.708Z,99290.00
2023-05-09T00:58:39.629Z,99287.00
2023-05-09T01:01:06.826Z,99284.00
2023-05-09T01:03:34.930Z,99281.00
2023-05-09T01:06:32.857Z,99286.00
2023-05-09T01:09:15.900Z,99282.00
2023-05-09T01:12:03.159Z,99278.00
2023-05-09T01:14:38.789Z,99280.00
2023-05-09T01:17:30.772Z,99270.00
2023-05-09T01:20:13.165Z,99273.00
2023-05-09T01:22:48.580Z,99265.00
2023-05-09T01:25:42.918Z,99267.00
2023-05-09T01:28:35.485Z,99260.00
2023-05-09T01:31:05.773Z,99250.00
2023-05-09T01:33:37.860Z,99258.00
2023-05-09T01:36:12.009Z,99263.00
2023-05-09T01:38:42.232Z,99256.00
2023-05-09T01:41:12.200Z,99258.00
2023-05-09T01:43:42.274Z,99259.00
2023-05-09T01:46:10.541Z,99247.00
2023-05-09T01:48:38.007Z,99241.00
2023-05-09T01:51:06.386Z,99246.00
2023-05-09T01:53:35.730Z,99245.00
2023-05-09T01:56:05.621Z,99237.00
2023-05-09T01:58:36.024Z,99237.00
2023-05-09T02:01:05.395Z,99229.00
2023-05-09T02:03:34.292Z,99232.00
2023-05-09T02:06:03.825Z,99233.00
2023-05-09T02:08:32.891Z,99230.00
2023-05-09T02:10:59.916Z,99231.00
2023-05-09T02:13:27.110Z,99233.00
2023-05-09T02:15:55.317Z,99239.00
2023-05-09T02:18:22.234Z,99229.00
2023-05-09T02:20:49.308Z,99227.00
2023-05-09T02:23:16.304Z,99226.00
2023-05-09T02:25:44.329Z,99230.00
2023-05-09T02:28:12.301Z,99221.00
2023-05-09T02:30:47.582Z,99227.00
2023-05-09T02:33:14.561Z,99223.00
2023-05-09T02:35:44.606Z,99230.00
2023-05-09T02:38:13.415Z,99225.00
2023-05-09T02:40:44.373Z,99224.00
2023-05-09T02:43:11.567Z,99225.00
2023-05-09T02:45:38.607Z,99228.00
2023-05-09T02:48:08.736Z,99226.00
2023-05-09T02:50:38.617Z,99220.00
2023-05-09T02:53:06.198Z,99218.00
2023-05-09T02:55:32.961Z,99223.00
2023-05-09T02:58:12.518Z,99209.00
2023-05-09T03:00:41.780Z,99210.00
2023-05-09T03:03:09.015Z,99211.00
2023-05-09T03:05:35.940Z,99209.00
2023-05-09T03:08:02.761Z,99202.00
2023-05-09T03:10:29.607Z,99198.00
2023-05-09T03:12:56.485Z,99200.00
2023-05-09T03:15:23.400Z,99191.00
2023-05-09T03:17:50.509Z,99204.00
2023-05-09T03:20:17.491Z,99194.00
2023-05-09T03:22:44.314Z,99199.00
2023-05-09T03:25:11.438Z,99198.00
2023-05-09T03:27:38.569Z,99200.00
2023-05-09T03:30:07.121Z,99199.00
2023-05-09T03:32:34.155Z,99199.00
2023-05-09T03:35:01.073Z,99202.00
2023-05-09T03:37:27.920Z,99205.00
2023-05-09T03:39:54.702Z,99207.00
2023-05-09T03:42:22.770Z,99198.00
2023-05-09T03:44:49.732Z,99201.00
2023-05-09T03:47:16.629Z,99197.00
2023-05-09T03:49:43.465Z,99195.00
2023-05-09T03:52:10.922Z,99197.00
2023-05-09T03:54:37.788Z,99198.00
2023-05-09T03:57:04.724Z,99196.00
2023-05-09T03:59:31.568Z,99189.00
2023-05-09T04:01:58.715Z,99188.00
2023-05-09T04:04:25.771Z,99190.00
2023-05-09T04:06:52.673Z,99186.00
2023-05-09T04:09:19.899Z,99182.00
2023-05-09T04:11:46.700Z,99173.00
2023-05-09T04:14:13.608Z,99180.00
2023-05-09T04:16:40.562Z,99189.00
2023-05-09T04:19:07.465Z,99188.00
2023-05-09T04:21:34.362Z,99187.00
2023-05-09T04:24:01.561Z,99185.00
2023-05-09T04:26:28.726Z,99193.00
2023-05-09T04:28:55.590Z,99185.00
2023-05-09T04:31:23.177Z,99193.00
2023-05-09T04:33:50.124Z,99192.00
2023-05-09T04:36:17.201Z,99192.00
2023-05-09T04:38:44.034Z,99195.00
2023-05-09T04:41:11.031Z,99195.00
2023-05-09T04:43:38.212Z,99190.00
2023-05-09T04:46:05.333Z,99194.00
2023-05-09T04:48:32.282Z,99185.00
2023-05-09T04:50:59.154Z,99184.00
2023-05-09T04:53:26.779Z,99180.00
2023-05-09T04:55:54.288Z,99186.00
2023-05-09T04:58:21.044Z,99181.00
2023-05-09T05:00:47.897Z,99186.00
2023-05-09T05:03:14.703Z,99175.00
2023-05-09T05:05:41.705Z,99176.00
2023-05-09T05:08:08.583Z,99170.00
2023-05-09T05:10:35.538Z,99167.00
2023-05-09T05:13:02.682Z,99174.00
2023-05-09T05:15:29.644Z,99172.00
2023-05-09T05:17:56.671Z,99175.00
2023-05-09T05:20:23.687Z,99171.00
2023-05-09T05:22:50.645Z,99176.00
2023-05-09T05:25:20.430Z,99171.00
2023-05-09T05:27:47.252Z,99179.00
2023-05-09T05:30:15.687Z,99174.00
2023-05-09T05:32:43.780Z,99176.00
2023-05-09T05:35:14.068Z,99172.00
2023-05-09T05:37:41.968Z,99179.00
2023-05-09T05:40:09.900Z,99175.00
2023-05-09T05:42:37.254Z,99167.00
2023-05-09T05:45:04.624Z,99174.00
2023-05-09T05:47:40.790Z,99166.00
2023-05-09T05:50:14.703Z,99162.00
2023-05-09T05:52:52.271Z,99162.00
2023-05-09T05:55:19.322Z,99164.00
2023-05-09T05:57:47.691Z,99165.00
2023-05-09T06:00:15.547Z,99158.00
2023-05-09T06:02:44.569Z,99154.00
2023-05-09T06:05:12.377Z,99148.00
2023-05-09T06:07:44.242Z,99147.00
2023-05-09T06:10:11.227Z,99147.00
2023-05-09T06:12:38.468Z,99147.00
2023-05-09T06:15:06.188Z,99134.00
2023-05-09T06:17:34.472Z,99134.00
2023-05-09T06:20:01.437Z,99130.00
2023-05-09T06:22:28.323Z,99133.00
2023-05-09T06:24:55.281Z,99128.00
2023-05-09T06:27:22.436Z,99121.00
2023-05-09T06:29:49.486Z,99121.00
2023-05-09T06:32:19.687Z,99137.00
2023-05-09T06:34:46.781Z,99130.00
2023-05-09T06:37:13.675Z,99127.00
2023-05-09T06:39:43.669Z,99122.00
2023-05-09T06:42:13.746Z,99125.00
2023-05-09T06:44:41.060Z,99116.00
2023-05-09T06:47:08.000Z,99110.00
2023-05-09T06:49:34.920Z,99104.00
2023-05-09T06:52:01.847Z,99108.00
2023-05-09T06:54:31.819Z,99111.00
2023-05-09T06:56:59.840Z,99107.00
2023-05-09T06:59:27.376Z,99103.00
2023-05-09T07:01:54.212Z,99091.00
2023-05-09T07:04:21.119Z,99092.00
2023-05-09T07:06:50.770Z,99083.00
2023-05-09T07:09:18.954Z,99074.00
2023-05-09T07:11:46.155Z,99080.00
2023-05-09T07:14:13.173Z,99076.00
2023-05-09T07:16:43.362Z,99068.00
2023-05-09T07:19:10.597Z,99058.00
2023-05-09T07:21:37.494Z,99053.00
2023-05-09T07:24:04.792Z,99053.00
2023-05-09T07:26:31.846Z,99054.00
2023-05-09T07:29:01.955Z,99050.00
2023-05-09T07:31:31.680Z,99044.00
2023-05-09T07:33:58.607Z,99043.00
2023-05-09T07:36:25.623Z,99036.00
2023-05-09T07:38:55.525Z,99029.00
2023-05-09T07:41:22.517Z,99023.00
2023-05-09T07:43:49.384Z,99020.00
2023-05-09T07:46:26.050Z,99028.00
2023-05-09T07:48:53.152Z,99024.00
2023-05-09T07:51:27.679Z,99017.00
2023-05-09T07:53:56.198Z,99015.00
2023-05-09T07:56:23.127Z,99009.00
2023-05-09T07:59:05.833Z,99005.00
2023-05-09T08:03:21.052Z,98999.00
2023-05-09T08:06:12.722Z,98993.00
2023-05-09T08:08:39.617Z,98981.00
2023-05-09T08:11:35.455Z,98978.00
2023-05-09T08:14:02.603Z,98980.00
2023-05-09T08:19:33.919Z,98970.00
2023-05-09T08:23:24.733Z,98971.00
2023-05-09T08:26:16.065Z,98969.00
2023-05-09T08:28:42.916Z,98959.00
2023-05-09T08:34:08.491Z,98944.00
2023-05-09T08:36:35.515Z,98949.00
2023-05-09T08:39:02.465Z,98945.00
2023-05-09T08:41:33.308Z,98948.00
2023-05-09T08:44:00.439Z,98931.00
2023-05-09T08:46:39.619Z,98938.00
2023-05-09T08:49:07.345Z,98937.00
2023-05-09T08:51:38.275Z,98938.00
2023-05-09T08:54:06.474Z,98931.00
2023-05-09T08:56:35.960Z,98927.00
2023-05-09T08:59:04.344Z,98932.00
2023-05-09T09:12:54.677Z,98917.00
2023-05-09T09:15:40.645Z,98914.00
2023-05-09T09:18:25.323Z,98916.00
2023-05-09T09:21:08.117Z,98915.00
2023-05-09T09:23:38.999Z,98899.00
2023-05-09T09:26:06.110Z,98889.00
2023-05-09T09:28:34.125Z,98892.00
2023-05-09T09:35:09.946Z,98884.00
2023-05-09T09:37:41.747Z,98881.00
2023-05-09T09:40:11.074Z,98897.00
2023-05-09T09:42:47.206Z,98877.00
2023-05-09T09:45:17.792Z,98876.00
2023-05-09T09:47:47.084Z,98869.00
2023-05-09T09:50:23.378Z,98877.00
2023-05-09T09:52:56.580Z,98868.00
2023-05-09T09:55:25.154Z,98863.00
2023-05-09T09:57:53.085Z,98866.00
2023-05-09T10:00:30.249Z,98850.00
2023-05-09T10:02:59.681Z,98853.00
2023-05-09T10:05:31.407Z,98849.00
2023-05-09T10:08:02.599Z,98845.00
2023-05-09T10:10:32.809Z,98845.00
2023-05-09T10:13:02.695Z,98833.00
2023-05-09T10:15:41.458Z,98834.00
2023-05-09T10:18:30.646Z,98834.00
2023-05-09T10:21:03.930Z,98817.00
2023-05-09T10:23:42.883Z,98813.00
2023-05-09T10:26:32.036Z,98803.00
2023-05-09T10:39:33.055Z,98787.00
2023-05-09T10:42:43.160Z,98775.00
2023-05-09T10:46:32.406Z,98783.00
2023-05-09T11:02:47.506Z,98759.00
2023-05-09T11:05:28.329Z,98745.00
2023-05-09T11:15:19.102Z,98726.00
2023-05-09T11:19:03.648Z,98724.00
2023-05-09T11:25:13.787Z,98709.00
2023-05-09T11:31:16.418Z,98701.00
2023-05-09T11:34:16.965Z,98693.00
2023-05-09T11:37:31.554Z,98684.00
2023-05-09T11:44:08.851Z,98674.00
2023-05-09T11:46:49.354Z,98674.00
2023-05-09T11:50:06.162Z,98666.00
2023-05-09T12:00:45.086Z,98651.00
2023-05-09T12:09:37.833Z,98645.00
2023-05-09T12:12:42.782Z,98632.00
2023-05-09T12:15:22.931Z,98630.00
2023-05-09T12:18:19.778Z,98632.00
2023-05-09T12:20:55.032Z,98630.00
2023-05-09T12:23:30.220Z,98620.00
2023-05-09T12:26:07.128Z,98623.00
2023-05-09T12:28:51.631Z,98616.00
2023-05-09T12:31:18.753Z,98605.00
2023-05-09T12:34:07.763Z,98604.00
2023-05-09T12:36:45.439Z,98604.00
2023-05-09T12:39:24.524Z,98597.00
2023-05-09T12:42:01.654Z,98590.00
2023-05-09T12:44:38.304Z,98589.00
2023-05-09T12:51:27.758Z,98578.00
2023-05-09T12:53:54.737Z,98579.00
2023-05-09T12:56:24.290Z,98592.00
2023-05-09T12:59:00.839Z,98573.00
2023-05-09T13:01:56.709Z,98575.00
2023-05-09T13:04:46.229Z,98576.00
2023-05-09T13:07:15.666Z,98575.00
2023-05-09T13:10:03.470Z,98561.00
2023-05-09T13:12:57.488Z,98562.00
2023-05-09T13:15:37.108Z,98557.00
2023-05-09T13:18:19.482Z,98554.00
2023-05-09T13:24:13.318Z,98551.00
2023-05-09T13:26:55.352Z,98547.00
2023-05-09T13:29:46.651Z,98534.00
2023-05-09T13:32:49.253Z,98529.00
2023-05-09T13:35:17.402Z,98535.00
2023-05-09T13:37:45.354Z,98528.00
2023-05-09T13:40:15.062Z,98526.00
2023-05-09T13:42:42.098Z,98521.00
2023-05-09T13:45:11.027Z,98521.00
2023-05-09T13:47:38.988Z,98521.00
2023-05-09T13:50:07.458Z,98521.00
2023-05-09T13:52:47.641Z,98516.00
2023-05-09T14:07:23.235Z,98500.00
2023-05-09T14:12:50.358Z,98494.00
2023-05-09T14:15:44.713Z,98492.00
2023-05-09T14:18:18.440Z,98496.00
2023-05-09T14:20:48.967Z,98490.00
2023-05-09T14:27:36.086Z,98480.00
2023-05-09T14:30:21.604Z,98482.00
2023-05-09T14:33:39.585Z,98485.00
2023-05-09T14:36:35.165Z,98477.00
2023-05-09T14:42:23.944Z,98477.00
2023-05-09T14:48:32.914Z,98476.00
2023-05-09T14:51:19.897Z,98477.00
2023-05-09T14:54:09.854Z,98473.00
2023-05-09T14:59:50.331Z,98477.00
2023-05-09T15:05:25.837Z,98475.00
2023-05-09T15:08:09.514Z,98491.00
2023-05-09T15:10:44.250Z,98478.00
2023-05-09T15:13:31.917Z,98483.00
2023-05-09T15:16:25.422Z,98490.00
2023-05-09T15:18:55.843Z,98490.00
2023-05-09T15:21:40.758Z,98483.00
2023-05-09T15:24:14.284Z,98489.00
2023-05-09T15:26:41.125Z,98485.00
2023-05-09T15:29:13.133Z,98497.00
2023-05-09T15:31:55.581Z,98495.00
2023-05-09T15:34:22.909Z,98494.00
2023-05-09T15:36:49.997Z,98496.00
2023-05-09T15:39:17.051Z,98500.00
2023-05-09T15:41:43.989Z,98493.00
2023-05-09T15:44:11.007Z,98497.00
2023-05-09T15:46:38.168Z,98491.00
2023-05-09T15:49:06.452Z,98501.00
2023-05-09T15:51:33.338Z,98499.00
2023-05-09T15:54:00.600Z,98503.00
2023-05-09T15:56:27.822Z,98508.00
2023-05-09T15:58:54.912Z,98505.00
2023-05-09T16:01:21.858Z,98509.00
2023-05-09T16:03:49.763Z,98510.00
2023-05-09T16:06:17.323Z,98511.00
2023-05-09T16:08:46.740Z,98512.00
2023-05-09T16:11:13.641Z,98511.00
2023-05-09T16:13:41.055Z,98513.00
2023-05-09T16:16:08.040Z,98516.00
2023-05-09T16:18:35.774Z,98514.00
2023-05-09T16:21:03.044Z,98508.00
2023-05-09T16:23:30.740Z,98512.00
2023-05-09T16:25:58.292Z,98505.00
2023-05-09T16:28:28.120Z,98506.00
2023-05-09T16:30:55.842Z,98510.00
2023-05-09T16:33:23.657Z,98506.00
2023-05-09T16:35:50.763Z,98496.00
2023-05-09T16:38:19.086Z,98498.00
2023-05-09T16:40:46.626Z,98509.00
2023-05-09T16:43:13.707Z,98500.00
2023-05-09T16:45:41.255Z,98504.00
2023-05-09T16:48:08.733Z,98498.00
2023-05-09T16:50:36.352Z,98501.00
2023-05-09T16:53:03.774Z,98494.00
2023-05-09T16:55:31.344Z,98500.00
2023-05-09T16:57:58.329Z,98500.00
2023-05-09T17:00:25.527Z,98500.00
2023-05-09T17:02:52.838Z,98506.00
2023-05-09T17:05:20.447Z,98502.00
2023-05-09T17:07:47.984Z,98496.00
2023-05-09T17:10:15.442Z,98491.00
2023-05-09T17:12:43.365Z,98486.00
2023-05-09T17:15:11.854Z,98493.00
2023-05-09T17:17:39.060Z,98488.00
2023-05-09T17:20:07.749Z,98493.00
2023-05-09T17:22:37.444Z,98491.00
2023-05-09T17:25:05.877Z,98500.00
2023-05-09T17:27:33.430Z,98486.00
2023-05-09T17:30:01.077Z,98496.00
2023-05-09T17:32:28.610Z,98496.00
2023-05-09T17:34:55.997Z,98490.00
2023-05-09T17:37:23.004Z,98482.00
2023-05-09T17:39:52.153Z,98487.00
2023-05-09T17:42:19.903Z,98485.00
2023-05-09T17:44:47.224Z,98486.00
2023-05-09T17:47:14.335Z,98488.00
2023-05-09T17:49:41.465Z,98481.00
2023-05-09T17:52:08.470Z,98484.00
2023-05-09T17:54:36.861Z,98485.00
2023-05-09T17:57:04.451Z,98477.00
2023-05-09T17:59:31.493Z,98483.00
2023-05-09T18:01:58.705Z,98469.00
2023-05-09T18:04:27.357Z,98467.00
2023-05-09T18:06:54.710Z,98469.00
2023-05-09T18:09:22.035Z,98468.00
2023-05-09T18:11:49.973Z,98468.00
2023-05-09T18:14:16.964Z,98463.00
2023-05-09T18:16:44.099Z,98464.00
2023-05-09T18:19:11.178Z,98472.00
2023-05-09T18:21:38.852Z,98468.00
2023-05-09T18:24:06.559Z,98461.00
2023-05-09T18:26:33.881Z,98465.00
2023-05-09T18:29:00.776Z,98465.00
2023-05-09T18:31:27.710Z,98460.00
2023-05-09T18:33:54.612Z,98459.00
2023-05-09T18:36:21.407Z,98458.00
2023-05-09T18:38:48.334Z,98462.00
2023-05-09T18:41:16.491Z,98455.00
2023-05-09T18:43:47.065Z,98459.00
2023-05-09T18:46:17.989Z,98462.00
2023-05-09T18:48:46.546Z,98455.00
2023-05-09T18:51:14.039Z,98455.00
2023-05-09T18:53:41.877Z,98457.00
2023-05-09T18:56:09.470Z,98460.00
2023-05-09T18:58:36.703Z,98461.00
2023-05-09T19:01:05.029Z,98457.00
2023-05-09T19:03:35.182Z,98455.00
2023-05-09T19:06:02.234Z,98464.00
2023-05-09T19:08:29.389Z,98457.00
2023-05-09T19:10:56.728Z,98453.00
2023-05-09T19:13:23.719Z,98448.00
2023-05-09T19:15:51.580Z,98455.00
2023-05-09T19:18:18.618Z,98455.00
2023-05-09T19:20:45.734Z,98462.00
2023-05-09T19:23:12.544Z,98473.00
2023-05-09T19:25:39.399Z,98464.00
2023-05-09T19:28:06.720Z,98471.00
2023-05-09T19:30:34.254Z,98468.00
2023-05-09T19:33:01.737Z,98471.00
2023-05-09T19:35:28.776Z,98473.00
2023-05-09T19:37:55.934Z,98474.00
2023-05-09T19:40:22.978Z,98467.00
2023-05-09T19:42:50.200Z,98473.00
2023-05-09T19:45:17.716Z,98474.00
2023-05-09T19:47:44.647Z,98479.00
2023-05-09T19:50:11.745Z,98471.00
2023-05-09T19:52:39.028Z,98482.00
2023-05-09T19:55:06.983Z,98480.00
2023-05-09T19:57:33.961Z,98481.00
2023-05-09T20:00:01.408Z,98474.00
2023-05-09T20:02:28.586Z,98481.00
2023-05-09T20:04:55.889Z,98477.00
2023-05-09T20:07:27.841Z,98475.00
2023-05-09T20:10:17.627Z,98473.00
2023-05-09T20:13:11.884Z,98467.00
2023-05-09T20:15:54.435Z,98474.00
2023-05-09T20:18:34.377Z,98481.00
2023-05-09T20:21:19.931Z,98482.00
2023-05-09T20:23:57.360Z,98476.00
2023-05-09T20:26:44.497Z,98495.00
2023-05-09T20:29:11.617Z,98485.00
2023-05-09T20:31:47.745Z,98485.00
2023-05-09T20:34:29.285Z,98486.00
2023-05-09T20:37:07.553Z,98491.00
2023-05-09T20:39:44.479Z,98489.00
2023-05-09T20:42:39.922Z,98499.00
2023-05-09T20:45:22.796Z,98500.00
2023-05-09T20:47:57.216Z,98498.00
2023-05-09T20:50:36.635Z,98506.00
2023-05-09T20:53:16.799Z,98483.00
2023-05-09T20:55:48.970Z,98504.00
2023-05-09T20:58:30.982Z,98504.00
2023-05-09T21:01:06.820Z,98508.00
2023-05-09T21:03:40.220Z,98507.00
2023-05-09T21:06:28.124Z,98499.00
2023-05-09T21:09:16.604Z,98501.00
2023-05-09T21:11:51.637Z,98505.00
2023-05-09T21:14:18.544Z,98515.00
2023-05-09T21:17:11.985Z,98515.00
2023-05-09T21:19:51.972Z,98517.00
2023-05-09T21:22:18.807Z,98512.00
2023-05-09T21:24:52.214Z,98518.00
2023-05-09T21:27:19.024Z,98510.00
2023-05-09T21:29:51.393Z,98512.00
2023-05-09T21:32:18.281Z,98506.00
2023-05-09T21:34:47.782Z,98514.00
2023-05-09T21:37:32.106Z,98515.00
2023-05-09T21:40:06.763Z,98518.00
2023-05-09T21:42:58.875Z,98516.00
2023-05-09T21:45:35.697Z,98521.00
2023-05-09T21:48:02.705Z,98515.00
2023-05-09T21:50:29.758Z,98512.00
2023-05-09T21:52:57.924Z,98530.00
2023-05-09T21:55:25.038Z,98535.00
2023-05-09T21:57:51.923Z,98529.00
2023-05-09T22:00:19.472Z,98534.00
2023-05-09T22:02:47.009Z,98522.00
2023-05-09T22:05:14.014Z,98527.00
2023-05-09T22:07:40.849Z,98527.00
2023-05-09T22:10:08.471Z,98527.00
2023-05-09T22:12:35.345Z,98535.00
2023-05-09T22:15:03.033Z,98535.00
2023-05-09T22:17:29.878Z,98542.00
2023-05-09T22:19:56.874Z,98542.00
2023-05-09T22:22:39.360Z,98540.00
2023-05-09T22:28:15.051Z,98539.00
2023-05-09T22:30:55.608Z,98551.00
2023-05-09T22:33:32.712Z,98542.00
2023-05-09T22:35:59.638Z,98553.00
2023-05-09T22:38:43.474Z,98554.00
2023-05-09T22:41:28.166Z,98544.00
2023-05-09T22:44:47.029Z,98556.00
2023-05-09T22:47:13.947Z,98559.00
2023-05-09T22:49:57.111Z,98569.00
2023-05-09T22:52:32.913Z,98566.00
2023-05-09T22:54:59.755Z,98566.00
2023-05-09T22:57:37.068Z,98560.00
2023-05-09T23:03:22.698Z,98591.00
2023-05-09T23:08:47.305Z,98591.00
2023-05-09T23:11:14.237Z,98584.00
2023-05-09T23:13:41.174Z,98594.00
2023-05-09T23:16:09.476Z,98593.00
2023-05-09T23:18:36.477Z,98585.00
2023-05-09T23:21:04.962Z,98588.00
2023-05-09T23:23:34.753Z,98587.00
2023-05-09T23:26:18.933Z,98580.00
2023-05-09T23:29:01.938Z,98581.00
2023-05-09T23:31:46.205Z,98575.00
2023-05-09T23:34:13.150Z,98586.00
2023-05-09T23:36:40.116Z,98585.00
2023-05-09T23:39:07.019Z,98585.00
2023-05-09T23:41:33.885Z,98579.00
2023-05-09T23:44:01.936Z,98595.00
2023-05-09T23:47:41.509Z,98585.00
2023-05-09T23:50:25.953Z,98579.00
2023-05-09T23:52:52.874Z,98585.00
2023-05-09T23:55:19.787Z,98591.00
2023-05-09T23:57:47.459Z,98589.00
